sensor_id;sensor_type;location;lat;lon;timestamp;pressure;altitude;pressure_sealevel;temperature;humidity
6204;BME280;3135;42.602;23.468;2023-03-20T00:01:25;93111.47;;;4.55;99.10
6204;BME280;3135;42.602;23.468;2023-03-20T00:03:53;93110.22;;;4.41;99.92
6204;BME280;3135;42.602;23.468;2023-03-20T00:06:21;93127.84;;;4.52;100.00
6204;BME280;3135;42.602;23.468;2023-03-20T00:08:48;93122.38;;;4.59;100.00
6204;BME280;3135;42.602;23.468;2023-03-20T00:14:16;93101.72;;;4.39;100.00
6204;BME280;3135;42.602;23.468;2023-03-20T00:16:44;93119.19;;;4.40;100.00
6204;BME280;3135;42.602;23.468;2023-03-20T00:19:18;93111.34;;;4.45;100.00
6204;BME280;3135;42.602;23.468;2023-03-20T00:21:44;93106.84;;;4.46;100.00
6204;BME280;3135;42.602;23.468;2023-03-20T00:24:11;93103.75;;;4.15;100.00
6204;BME280;3135;42.602;23.468;2023-03-20T00:26:36;93100.31;;;4.15;100.00
6204;BME280;3135;42.602;23.468;2023-03-20T00:29:03;93098.22;;;4.17;100.00
6204;BME280;3135;42.602;23.468;2023-03-20T00:31:31;93089.56;;;4.04;100.00
6204;BME280;3135;42.602;23.468;2023-03-20T00:34:06;93079.16;;;3.98;100.00
6204;BME280;3135;42.602;23.468;2023-03-20T00:36:34;93071.25;;;3.98;100.00
6204;BME280;3135;42.602;23.468;2023-03-20T00:39:00;93080.75;;;3.99;100.00
6204;BME280;3135;42.602;23.468;2023-03-20T00:46:38;93070.84;;;3.89;100.00
6204;BME280;3135;42.602;23.468;2023-03-20T00:49:04;93079.16;;;3.98;100.00
6204;BME280;3135;42.602;23.468;2023-03-20T00:51:30;93061.47;;;3.81;100.00
6204;BME280;3135;42.602;23.468;2023-03-20T00:53:56;93065.94;;;3.81;100.00
6204;BME280;3135;42.602;23.468;2023-03-20T00:56:34;93068.44;;;3.71;100.00
6204;BME280;3135;42.602;23.468;2023-03-20T00:59:01;93076.13;;;3.72;100.00
6204;BME280;3135;42.602;23.468;2023-03-20T01:01:28;93067.56;;;3.82;100.00
6204;BME280;3135;42.602;23.468;2023-03-20T01:03:54;93075.72;;;3.80;100.00
6204;BME280;3135;42.602;23.468;2023-03-20T01:06:20;93046.50;;;3.70;100.00
6204;BME280;3135;42.602;23.468;2023-03-20T01:08:45;93069.09;;;3.78;100.00
6204;BME280;3135;42.602;23.468;2023-03-20T01:11:13;93077.50;;;3.92;100.00
6204;BME280;3135;42.602;23.468;2023-03-20T01:13:41;93074.06;;;3.91;100.00
6204;BME280;3135;42.602;23.468;2023-03-20T01:16:18;93058.81;;;3.98;100.00
6204;BME280;3135;42.602;23.468;2023-03-20T01:18:44;93069.88;;;3.78;100.00
6204;BME280;3135;42.602;23.468;2023-03-20T01:21:10;93048.56;;;3.85;100.00
6204;BME280;3135;42.602;23.468;2023-03-20T01:23:36;93067.72;;;3.92;100.00
6204;BME280;3135;42.602;23.468;2023-03-20T01:26:02;93065.06;;;3.92;100.00
6204;BME280;3135;42.602;23.468;2023-03-20T01:28:28;93057.56;;;3.67;100.00
6204;BME280;3135;42.602;23.468;2023-03-20T01:30:54;93053.56;;;3.81;100.00
6204;BME280;3135;42.602;23.468;2023-03-20T01:33:21;93058.00;;;3.81;100.00
6204;BME280;3135;42.602;23.468;2023-03-20T01:35:49;93065.41;;;3.79;100.00
6204;BME280;3135;42.602;23.468;2023-03-20T01:38:20;93068.94;;;3.68;100.00
6204;BME280;3135;42.602;23.468;2023-03-20T01:43:17;93062.44;;;3.58;100.00
6204;BME280;3135;42.602;23.468;2023-03-20T01:48:22;93057.44;;;3.28;100.00
6204;BME280;3135;42.602;23.468;2023-03-20T01:50:49;93056.63;;;3.28;100.00
6204;BME280;3135;42.602;23.468;2023-03-20T01:53:19;93067.91;;;3.23;100.00
6204;BME280;3135;42.602;23.468;2023-03-20T01:55:47;93074.66;;;3.31;100.00
6204;BME280;3135;42.602;23.468;2023-03-20T01:58:19;93066.16;;;3.29;100.00
6204;BME280;3135;42.602;23.468;2023-03-20T02:00:46;93069.69;;;3.35;100.00
6204;BME280;3135;42.602;23.468;2023-03-20T02:03:14;93073.06;;;3.30;100.00
6204;BME280;3135;42.602;23.468;2023-03-20T02:05:41;93075.78;;;3.52;100.00
6204;BME280;3135;42.602;23.468;2023-03-20T02:10:45;93057.31;;;3.06;100.00
6204;BME280;3135;42.602;23.468;2023-03-20T02:13:12;93065.25;;;3.06;100.00
6204;BME280;3135;42.602;23.468;2023-03-20T02:15:55;93063.63;;;3.34;100.00
6204;BME280;3135;42.602;23.468;2023-03-20T02:18:20;93064.47;;;3.23;100.00
6204;BME280;3135;42.602;23.468;2023-03-20T02:21:18;93054.47;;;2.96;100.00
6204;BME280;3135;42.602;23.468;2023-03-20T02:29:43;93062.44;;;3.13;100.00
6204;BME280;3135;42.602;23.468;2023-03-20T02:46:09;93044.13;;;3.06;100.00
6204;BME280;3135;42.602;23.468;2023-03-20T02:51:27;93072.28;;;2.89;100.00
6204;BME280;3135;42.602;23.468;2023-03-20T03:01:54;93046.78;;;2.66;100.00
6204;BME280;3135;42.602;23.468;2023-03-20T03:04:27;93052.31;;;2.53;100.00
6204;BME280;3135;42.602;23.468;2023-03-20T03:06:55;93040.88;;;2.47;100.00
6204;BME280;3135;42.602;23.468;2023-03-20T03:09:28;93025.28;;;2.46;100.00
6204;BME280;3135;42.602;23.468;2023-03-20T03:12:13;93046.94;;;2.60;100.00
6204;BME280;3135;42.602;23.468;2023-03-20T03:14:43;93044.81;;;2.73;100.00
6204;BME280;3135;42.602;23.468;2023-03-20T03:17:12;93053.06;;;2.77;100.00
6204;BME280;3135;42.602;23.468;2023-03-20T03:19:43;93053.81;;;2.61;100.00
6204;BME280;3135;42.602;23.468;2023-03-20T03:22:11;93055.69;;;2.77;100.00
6204;BME280;3135;42.602;23.468;2023-03-20T03:24:42;93052.78;;;2.90;100.00
6204;BME280;3135;42.602;23.468;2023-03-20T03:27:17;93043.94;;;2.56;100.00
6204;BME280;3135;42.602;23.468;2023-03-20T03:29:48;93050.91;;;2.74;100.00
6204;BME280;3135;42.602;23.468;2023-03-20T03:32:24;93035.13;;;2.50;100.00
6204;BME280;3135;42.602;23.468;2023-03-20T03:34:50;93045.88;;;2.61;100.00
6204;BME280;3135;42.602;23.468;2023-03-20T03:37:52;93048.63;;;2.66;100.00
6204;BME280;3135;42.602;23.468;2023-03-20T03:43:06;93056.28;;;2.67;100.00
6204;BME280;3135;42.602;23.468;2023-03-20T03:45:43;93042.22;;;2.62;100.00
6204;BME280;3135;42.602;23.468;2023-03-20T03:48:22;93048.13;;;2.80;100.00
6204;BME280;3135;42.602;23.468;2023-03-20T03:51:02;93042.41;;;3.00;100.00
6204;BME280;3135;42.602;23.468;2023-03-20T03:53:32;93044.88;;;2.90;100.00
6204;BME280;3135;42.602;23.468;2023-03-20T03:56:01;93041.00;;;2.81;100.00
6204;BME280;3135;42.602;23.468;2023-03-20T03:58:31;93061.28;;;2.92;100.00
6204;BME280;3135;42.602;23.468;2023-03-20T04:00:59;93061.97;;;2.88;100.00
6204;BME280;3135;42.602;23.468;2023-03-20T04:03:30;93055.13;;;2.75;100.00
6204;BME280;3135;42.602;23.468;2023-03-20T04:05:58;93045.78;;;2.55;100.00
6204;BME280;3135;42.602;23.468;2023-03-20T04:08:25;93023.34;;;2.41;100.00
6204;BME280;3135;42.602;23.468;2023-03-20T04:10:51;93054.75;;;2.54;100.00
6204;BME280;3135;42.602;23.468;2023-03-20T04:13:16;93040.56;;;2.32;100.00
6204;BME280;3135;42.602;23.468;2023-03-20T04:15:42;93040.97;;;2.52;100.00
6204;BME280;3135;42.602;23.468;2023-03-20T04:18:13;93021.75;;;2.40;100.00
6204;BME280;3135;42.602;23.468;2023-03-20T04:20:41;93031.25;;;2.41;100.00
6204;BME280;3135;42.602;23.468;2023-03-20T04:23:06;93037.09;;;2.55;100.00
6204;BME280;3135;42.602;23.468;2023-03-20T04:25:32;93033.16;;;2.58;100.00
6204;BME280;3135;42.602;23.468;2023-03-20T04:27:57;93019.41;;;2.55;100.00
6204;BME280;3135;42.602;23.468;2023-03-20T04:30:23;93024.41;;;2.40;100.00
6204;BME280;3135;42.602;23.468;2023-03-20T04:32:48;93019.81;;;2.36;100.00
6204;BME280;3135;42.602;23.468;2023-03-20T04:35:14;93038.94;;;2.43;100.00
6204;BME280;3135;42.602;23.468;2023-03-20T04:37:39;93019.88;;;2.52;100.00
6204;BME280;3135;42.602;23.468;2023-03-20T04:40:05;93016.00;;;2.43;100.00
6204;BME280;3135;42.602;23.468;2023-03-20T04:42:31;93011.84;;;2.47;100.00
6204;BME280;3135;42.602;23.468;2023-03-20T04:44:56;93039.47;;;2.56;100.00
6204;BME280;3135;42.602;23.468;2023-03-20T04:47:21;93027.09;;;2.57;100.00
6204;BME280;3135;42.602;23.468;2023-03-20T04:49:47;93022.84;;;2.56;100.00
6204;BME280;3135;42.602;23.468;2023-03-20T04:52:12;93025.69;;;2.66;100.00
6204;BME280;3135;42.602;23.468;2023-03-20T04:54:38;93006.66;;;2.64;100.00
6204;BME280;3135;42.602;23.468;2023-03-20T04:57:03;93033.06;;;2.81;100.00
6204;BME280;3135;42.602;23.468;2023-03-20T04:59:28;93025.16;;;2.81;100.00
6204;BME280;3135;42.602;23.468;2023-03-20T05:01:54;93032.75;;;3.06;100.00
6204;BME280;3135;42.602;23.468;2023-03-20T05:04:19;93038.94;;;3.12;100.00
6204;BME280;3135;42.602;23.468;2023-03-20T05:06:45;93036.47;;;2.93;100.00
6204;BME280;3135;42.602;23.468;2023-03-20T05:09:13;93059.25;;;3.28;100.00
6204;BME280;3135;42.602;23.468;2023-03-20T05:11:40;93043.09;;;3.24;100.00
6204;BME280;3135;42.602;23.468;2023-03-20T05:14:05;93049.19;;;3.25;100.00
6204;BME280;3135;42.602;23.468;2023-03-20T05:16:31;93048.69;;;3.28;100.00
6204;BME280;3135;42.602;23.468;2023-03-20T05:18:57;93049.44;;;3.40;100.00
6204;BME280;3135;42.602;23.468;2023-03-20T05:21:22;93078.38;;;3.64;100.00
6204;BME280;3135;42.602;23.468;2023-03-20T05:23:47;93062.66;;;3.57;100.00
6204;BME280;3135;42.602;23.468;2023-03-20T05:26:13;93059.72;;;3.53;100.00
6204;BME280;3135;42.602;23.468;2023-03-20T05:28:38;93072.03;;;3.65;100.00
6204;BME280;3135;42.602;23.468;2023-03-20T05:31:04;93059.53;;;3.60;100.00
6204;BME280;3135;42.602;23.468;2023-03-20T05:33:30;93075.72;;;3.80;100.00
6204;BME280;3135;42.602;23.468;2023-03-20T05:35:55;93057.06;;;3.87;100.00
6204;BME280;3135;42.602;23.468;2023-03-20T05:38:20;93069.31;;;3.93;100.00
6204;BME280;3135;42.602;23.468;2023-03-20T05:40:50;93062.91;;;3.89;100.00
6204;BME280;3135;42.602;23.468;2023-03-20T05:43:19;93051.78;;;3.87;100.00
6204;BME280;3135;42.602;23.468;2023-03-20T05:45:45;93060.44;;;3.82;100.00
6204;BME280;3135;42.602;23.468;2023-03-20T05:48:10;93066.03;;;3.86;100.00
6204;BME280;3135;42.602;23.468;2023-03-20T05:50:36;93077.25;;;3.93;100.00
6204;BME280;3135;42.602;23.468;2023-03-20T05:53:01;93054.34;;;3.82;100.00
6204;BME280;3135;42.602;23.468;2023-03-20T05:55:27;93069.63;;;3.97;100.00
6204;BME280;3135;42.602;23.468;2023-03-20T05:57:52;93065.88;;;4.09;100.00
6204;BME280;3135;42.602;23.468;2023-03-20T06:00:18;93072.91;;;4.21;100.00
6204;BME280;3135;42.602;23.468;2023-03-20T06:02:43;93059.56;;;4.32;100.00
6204;BME280;3135;42.602;23.468;2023-03-20T06:05:09;93085.84;;;4.39;100.00
6204;BME280;3135;42.602;23.468;2023-03-20T06:07:34;93061.47;;;4.37;100.00
6204;BME280;3135;42.602;23.468;2023-03-20T06:10:00;93071.69;;;4.50;100.00
6204;BME280;3135;42.602;23.468;2023-03-20T06:12:25;93069.63;;;4.52;100.00
6204;BME280;3135;42.602;23.468;2023-03-20T06:14:50;93074.53;;;4.44;100.00
6204;BME280;3135;42.602;23.468;2023-03-20T06:17:16;93073.44;;;4.61;100.00
6204;BME280;3135;42.602;23.468;2023-03-20T06:19:41;93078.75;;;4.61;100.00
6204;BME280;3135;42.602;23.468;2023-03-20T06:22:07;93077.13;;;4.60;100.00
6204;BME280;3135;42.602;23.468;2023-03-20T06:24:32;93065.13;;;4.75;100.00
6204;BME280;3135;42.602;23.468;2023-03-20T06:26:59;93063.00;;;4.72;100.00
6204;BME280;3135;42.602;23.468;2023-03-20T06:29:25;93070.09;;;4.93;100.00
6204;BME280;3135;42.602;23.468;2023-03-20T06:31:50;93094.56;;;5.22;100.00
6204;BME280;3135;42.602;23.468;2023-03-20T06:34:16;93094.88;;;5.31;100.00
6204;BME280;3135;42.602;23.468;2023-03-20T06:36:41;93078.56;;;5.39;100.00
6204;BME280;3135;42.602;23.468;2023-03-20T06:39:07;93078.34;;;5.46;100.00
6204;BME280;3135;42.602;23.468;2023-03-20T06:41:33;93082.41;;;5.53;100.00
6204;BME280;3135;42.602;23.468;2023-03-20T06:43:58;93088.88;;;5.68;100.00
6204;BME280;3135;42.602;23.468;2023-03-20T06:46:24;93092.28;;;5.63;100.00
6204;BME280;3135;42.602;23.468;2023-03-20T06:48:49;93099.66;;;5.88;100.00
6204;BME280;3135;42.602;23.468;2023-03-20T06:51:16;93088.53;;;5.86;100.00
6204;BME280;3135;42.602;23.468;2023-03-20T06:53:41;93090.69;;;5.89;100.00
6204;BME280;3135;42.602;23.468;2023-03-20T06:56:09;93086.53;;;5.98;100.00
6204;BME280;3135;42.602;23.468;2023-03-20T06:58:35;93083.13;;;6.03;100.00
6204;BME280;3135;42.602;23.468;2023-03-20T07:01:01;93090.34;;;6.07;100.00
6204;BME280;3135;42.602;23.468;2023-03-20T07:03:27;93074.22;;;6.19;100.00
6204;BME280;3135;42.602;23.468;2023-03-20T07:05:52;93078.03;;;6.33;100.00
6204;BME280;3135;42.602;23.468;2023-03-20T07:08:18;93074.41;;;6.50;100.00
6204;BME280;3135;42.602;23.468;2023-03-20T07:10:43;93066.47;;;6.55;100.00
6204;BME280;3135;42.602;23.468;2023-03-20T07:13:09;93060.94;;;6.66;100.00
6204;BME280;3135;42.602;23.468;2023-03-20T07:15:34;93066.09;;;6.83;100.00
6204;BME280;3135;42.602;23.468;2023-03-20T07:18:00;93060.31;;;6.97;100.00
6204;BME280;3135;42.602;23.468;2023-03-20T07:20:26;93074.72;;;7.16;98.19
6204;BME280;3135;42.602;23.468;2023-03-20T07:22:51;93077.94;;;7.38;96.28
6204;BME280;3135;42.602;23.468;2023-03-20T07:25:17;93059.91;;;7.40;97.38
6204;BME280;3135;42.602;23.468;2023-03-20T07:27:43;93058.31;;;7.50;96.28
6204;BME280;3135;42.602;23.468;2023-03-20T07:30:14;93073.78;;;7.88;95.17
6204;BME280;3135;42.602;23.468;2023-03-20T07:32:40;93051.44;;;7.69;97.56
6204;BME280;3135;42.602;23.468;2023-03-20T07:35:05;93051.44;;;7.89;98.20
6204;BME280;3135;42.602;23.468;2023-03-20T07:37:31;93065.00;;;7.93;97.67
6204;BME280;3135;42.602;23.468;2023-03-20T07:39:56;93059.44;;;8.15;98.17
6204;BME280;3135;42.602;23.468;2023-03-20T07:42:22;93074.31;;;8.41;96.66
6204;BME280;3135;42.602;23.468;2023-03-20T07:44:47;93064.44;;;8.62;94.26
6204;BME280;3135;42.602;23.468;2023-03-20T07:47:13;93058.03;;;8.68;91.88
6204;BME280;3135;42.602;23.468;2023-03-20T07:49:38;93080.94;;;8.69;92.16
6204;BME280;3135;42.602;23.468;2023-03-20T07:52:03;93076.94;;;8.72;90.87
6204;BME280;3135;42.602;23.468;2023-03-20T07:54:29;93069.75;;;8.73;91.29
6204;BME280;3135;42.602;23.468;2023-03-20T07:56:54;93071.09;;;8.60;91.71
6204;BME280;3135;42.602;23.468;2023-03-20T07:59:20;93077.16;;;8.91;90.16
6204;BME280;3135;42.602;23.468;2023-03-20T08:01:45;93086.16;;;9.10;89.38
6204;BME280;3135;42.602;23.468;2023-03-20T08:04:11;93092.50;;;9.19;88.78
6204;BME280;3135;42.602;23.468;2023-03-20T08:06:36;93087.16;;;9.25;89.38
6204;BME280;3135;42.602;23.468;2023-03-20T08:09:04;93086.31;;;9.34;88.56
6204;BME280;3135;42.602;23.468;2023-03-20T08:11:30;93099.53;;;9.60;85.04
6204;BME280;3135;42.602;23.468;2023-03-20T08:13:55;93082.22;;;9.52;84.27
6204;BME280;3135;42.602;23.468;2023-03-20T08:16:21;93093.78;;;9.37;87.37
6204;BME280;3135;42.602;23.468;2023-03-20T08:18:46;93093.38;;;9.59;85.84
6204;BME280;3135;42.602;23.468;2023-03-20T08:21:11;93082.91;;;9.68;83.72
6204;BME280;3135;42.602;23.468;2023-03-20T08:23:37;93109.47;;;9.93;83.45
6204;BME280;3135;42.602;23.468;2023-03-20T08:26:02;93090.31;;;9.81;82.02
6204;BME280;3135;42.602;23.468;2023-03-20T08:28:28;93098.13;;;10.07;83.03
6204;BME280;3135;42.602;23.468;2023-03-20T08:30:53;93093.41;;;10.38;80.43
6204;BME280;3135;42.602;23.468;2023-03-20T08:33:19;93103.44;;;10.51;78.12
6204;BME280;3135;42.602;23.468;2023-03-20T08:35:55;93110.16;;;10.78;78.26
6204;BME280;3135;42.602;23.468;2023-03-20T08:38:20;93086.03;;;10.83;75.96
6204;BME280;3135;42.602;23.468;2023-03-20T08:40:46;93107.31;;;10.93;73.44
6204;BME280;3135;42.602;23.468;2023-03-20T08:43:11;93098.63;;;11.06;67.03
6204;BME280;3135;42.602;23.468;2023-03-20T08:45:37;93111.94;;;11.11;69.02
6204;BME280;3135;42.602;23.468;2023-03-20T08:48:02;93104.19;;;11.34;65.67
6204;BME280;3135;42.602;23.468;2023-03-20T08:50:28;93103.63;;;11.37;66.49
6204;BME280;3135;42.602;23.468;2023-03-20T08:52:54;93106.31;;;11.56;62.61
6204;BME280;3135;42.602;23.468;2023-03-20T08:55:19;93098.97;;;11.66;64.81
6204;BME280;3135;42.602;23.468;2023-03-20T08:57:45;93100.94;;;11.80;60.68
6204;BME280;3135;42.602;23.468;2023-03-20T09:00:12;93108.16;;;11.79;60.87
6204;BME280;3135;42.602;23.468;2023-03-20T09:02:40;93111.66;;;11.98;62.20
6204;BME280;3135;42.602;23.468;2023-03-20T09:05:06;93090.91;;;11.90;63.06
6204;BME280;3135;42.602;23.468;2023-03-20T09:07:31;93096.19;;;11.95;62.93
6204;BME280;3135;42.602;23.468;2023-03-20T09:09:57;93093.88;;;12.08;61.08
6204;BME280;3135;42.602;23.468;2023-03-20T09:12:22;93097.13;;;12.23;64.29
6204;BME280;3135;42.602;23.468;2023-03-20T09:14:48;93087.53;;;12.36;62.03
6204;BME280;3135;42.602;23.468;2023-03-20T09:17:13;93080.97;;;12.28;60.90
6204;BME280;3135;42.602;23.468;2023-03-20T09:19:39;93089.75;;;12.48;61.42
6204;BME280;3135;42.602;23.468;2023-03-20T09:22:11;93093.59;;;12.74;60.51
6204;BME280;3135;42.602;23.468;2023-03-20T09:24:36;93085.84;;;12.73;59.40
6204;BME280;3135;42.602;23.468;2023-03-20T09:27:02;93087.66;;;12.77;59.86
6204;BME280;3135;42.602;23.468;2023-03-20T09:29:27;93082.38;;;12.72;60.39
6204;BME280;3135;42.602;23.468;2023-03-20T09:31:53;93081.22;;;12.92;58.05
6204;BME280;3135;42.602;23.468;2023-03-20T09:34:18;93086.59;;;13.06;58.66
6204;BME280;3135;42.602;23.468;2023-03-20T09:36:44;93074.38;;;13.00;58.56
6204;BME280;3135;42.602;23.468;2023-03-20T09:39:10;93075.78;;;13.25;57.99
6204;BME280;3135;42.602;23.468;2023-03-20T09:41:36;93073.59;;;13.41;58.29
6204;BME280;3135;42.602;23.468;2023-03-20T09:44:17;93083.03;;;13.66;57.51
6204;BME280;3135;42.602;23.468;2023-03-20T09:47:00;93073.97;;;13.75;57.03
6204;BME280;3135;42.602;23.468;2023-03-20T09:49:39;93071.28;;;14.12;56.17
6204;BME280;3135;42.602;23.468;2023-03-20T09:52:27;93070.22;;;13.99;54.91
6204;BME280;3135;42.602;23.468;2023-03-20T09:54:58;93044.06;;;13.91;56.16
6204;BME280;3135;42.602;23.468;2023-03-20T09:57:31;93055.63;;;14.14;55.26
6204;BME280;3135;42.602;23.468;2023-03-20T10:00:03;93049.28;;;14.10;55.06
6204;BME280;3135;42.602;23.468;2023-03-20T10:05:18;93035.19;;;14.49;54.58
6204;BME280;3135;42.602;23.468;2023-03-20T10:07:46;93033.41;;;14.67;53.50
6204;BME280;3135;42.602;23.468;2023-03-20T10:10:13;93014.16;;;14.73;51.82
6204;BME280;3135;42.602;23.468;2023-03-20T10:12:57;93017.91;;;14.72;52.42
6204;BME280;3135;42.602;23.468;2023-03-20T10:18:23;92997.50;;;14.71;52.01
6204;BME280;3135;42.602;23.468;2023-03-20T10:21:03;92993.19;;;14.93;50.91
6204;BME280;3135;42.602;23.468;2023-03-20T10:23:38;93005.16;;;14.87;50.77
6204;BME280;3135;42.602;23.468;2023-03-20T10:26:10;93003.44;;;15.30;51.03
6204;BME280;3135;42.602;23.468;2023-03-20T10:28:51;92991.88;;;15.47;49.83
6204;BME280;3135;42.602;23.468;2023-03-20T10:42:46;92984.97;;;15.98;47.55
6204;BME280;3135;42.602;23.468;2023-03-20T10:45:30;92990.03;;;16.17;45.31
6204;BME280;3135;42.602;23.468;2023-03-20T10:48:01;92986.84;;;16.32;45.46
6204;BME280;3135;42.602;23.468;2023-03-20T10:50:41;92965.81;;;16.00;44.15
6204;BME280;3135;42.602;23.468;2023-03-20T10:54:20;92988.63;;;16.20;44.08
6204;BME280;3135;42.602;23.468;2023-03-20T10:56:15;92987.78;;;16.36;42.74
6204;BME280;3135;42.602;23.468;2023-03-20T10:58:46;92989.88;;;16.22;41.89
6204;BME280;3135;42.602;23.468;2023-03-20T11:01:13;92986.19;;;16.53;42.19
6204;BME280;3135;42.602;23.468;2023-03-20T11:03:38;92982.03;;;16.64;41.74
6204;BME280;3135;42.602;23.468;2023-03-20T11:06:16;92970.59;;;16.67;42.91
6204;BME280;3135;42.602;23.468;2023-03-20T11:08:47;92972.19;;;16.77;40.46
6204;BME280;3135;42.602;23.468;2023-03-20T11:11:27;92958.06;;;16.80;38.94
6204;BME280;3135;42.602;23.468;2023-03-20T11:13:55;92971.69;;;16.83;38.61
6204;BME280;3135;42.602;23.468;2023-03-20T11:16:24;92950.75;;;16.80;39.66
6204;BME280;3135;42.602;23.468;2023-03-20T11:18:51;92971.41;;;16.76;37.03
6204;BME280;3135;42.602;23.468;2023-03-20T11:21:26;92962.97;;;16.69;37.23
6204;BME280;3135;42.602;23.468;2023-03-20T11:23:53;92932.53;;;16.60;37.34
6204;BME280;3135;42.602;23.468;2023-03-20T11:26:39;92957.13;;;17.05;36.27
6204;BME280;3135;42.602;23.468;2023-03-20T11:29:09;92927.44;;;16.67;35.84
6204;BME280;3135;42.602;23.468;2023-03-20T11:31:40;92946.69;;;17.04;34.85
6204;BME280;3135;42.602;23.468;2023-03-20T11:36:32;92948.53;;;17.42;35.73
6204;BME280;3135;42.602;23.468;2023-03-20T11:39:10;92947.22;;;17.48;35.61
6204;BME280;3135;42.602;23.468;2023-03-20T11:41:46;92934.69;;;17.43;35.93
6204;BME280;3135;42.602;23.468;2023-03-20T11:46:59;92913.19;;;17.68;35.03
6204;BME280;3135;42.602;23.468;2023-03-20T11:49:28;92911.44;;;17.72;34.75
6204;BME280;3135;42.602;23.468;2023-03-20T11:52:21;92925.59;;;18.10;33.97
6204;BME280;3135;42.602;23.468;2023-03-20T11:54:52;92913.75;;;18.03;34.62
6204;BME280;3135;42.602;23.468;2023-03-20T11:57:33;92915.84;;;17.97;35.91
6204;BME280;3135;42.602;23.468;2023-03-20T12:00:06;92908.41;;;17.94;34.39
6204;BME280;3135;42.602;23.468;2023-03-20T12:02:40;92904.06;;;17.81;34.44
6204;BME280;3135;42.602;23.468;2023-03-20T12:05:32;92903.09;;;18.19;34.82
6204;BME280;3135;42.602;23.468;2023-03-20T12:08:12;92901.13;;;18.52;33.95
6204;BME280;3135;42.602;23.468;2023-03-20T12:10:42;92901.25;;;18.56;33.84
6204;BME280;3135;42.602;23.468;2023-03-20T12:13:12;92904.53;;;18.49;34.32
6204;BME280;3135;42.602;23.468;2023-03-20T12:15:44;92903.34;;;18.38;34.08
6204;BME280;3135;42.602;23.468;2023-03-20T12:26:34;92882.50;;;18.38;35.71
6204;BME280;3135;42.602;23.468;2023-03-20T12:31:48;92863.47;;;18.35;34.44
6204;BME280;3135;42.602;23.468;2023-03-20T12:34:22;92872.41;;;18.60;33.19
6204;BME280;3135;42.602;23.468;2023-03-20T12:36:50;92873.81;;;18.78;33.64
6204;BME280;3135;42.602;23.468;2023-03-20T12:39:31;92826.81;;;18.62;33.33
6204;BME280;3135;42.602;23.468;2023-03-20T12:49:45;92862.00;;;18.37;34.27
6204;BME280;3135;42.602;23.468;2023-03-20T12:55:20;92852.41;;;17.95;33.11
6204;BME280;3135;42.602;23.468;2023-03-20T12:58:14;92861.38;;;18.07;32.03
6204;BME280;3135;42.602;23.468;2023-03-20T13:01:26;92849.28;;;17.93;32.54
6204;BME280;3135;42.602;23.468;2023-03-20T13:06:29;92850.41;;;18.04;31.13
6204;BME280;3135;42.602;23.468;2023-03-20T13:09:03;92849.69;;;18.28;31.51
6204;BME280;3135;42.602;23.468;2023-03-20T13:11:41;92833.09;;;18.17;31.14
6204;BME280;3135;42.602;23.468;2023-03-20T13:14:19;92834.47;;;18.23;30.36
6204;BME280;3135;42.602;23.468;2023-03-20T13:17:00;92838.31;;;18.34;30.61
6204;BME280;3135;42.602;23.468;2023-03-20T13:19:36;92825.22;;;18.12;30.21
6204;BME280;3135;42.602;23.468;2023-03-20T13:22:53;92828.50;;;18.42;31.56
6204;BME280;3135;42.602;23.468;2023-03-20T13:25:22;92825.72;;;18.51;30.50
6204;BME280;3135;42.602;23.468;2023-03-20T13:27:55;92827.09;;;18.69;30.34
6204;BME280;3135;42.602;23.468;2023-03-20T13:30:33;92818.75;;;18.74;30.64
6204;BME280;3135;42.602;23.468;2023-03-20T13:39:09;92807.56;;;18.88;28.86
6204;BME280;3135;42.602;23.468;2023-03-20T13:41:37;92798.53;;;18.96;29.06
6204;BME280;3135;42.602;23.468;2023-03-20T13:44:04;92790.13;;;19.26;31.84
6204;BME280;3135;42.602;23.468;2023-03-20T13:49:07;92783.13;;;19.25;28.75
6204;BME280;3135;42.602;23.468;2023-03-20T13:51:47;92783.53;;;18.86;28.72
6204;BME280;3135;42.602;23.468;2023-03-20T13:54:45;92795.06;;;18.83;29.37
6204;BME280;3135;42.602;23.468;2023-03-20T14:00:37;92766.41;;;18.70;28.13
6204;BME280;3135;42.602;23.468;2023-03-20T14:05:37;92772.59;;;18.83;28.87
6204;BME280;3135;42.602;23.468;2023-03-20T14:10:44;92767.97;;;18.83;28.67
6204;BME280;3135;42.602;23.468;2023-03-20T14:13:14;92762.81;;;18.78;28.78
6204;BME280;3135;42.602;23.468;2023-03-20T14:15:51;92763.47;;;18.75;27.36
6204;BME280;3135;42.602;23.468;2023-03-20T14:18:21;92757.16;;;18.71;27.73
6204;BME280;3135;42.602;23.468;2023-03-20T14:21:00;92760.38;;;19.01;29.97
6204;BME280;3135;42.602;23.468;2023-03-20T14:23:35;92758.91;;;19.04;32.44
6204;BME280;3135;42.602;23.468;2023-03-20T14:26:11;92765.03;;;18.88;28.10
6204;BME280;3135;42.602;23.468;2023-03-20T14:28:51;92759.63;;;18.88;29.09
6204;BME280;3135;42.602;23.468;2023-03-20T14:31:31;92761.44;;;18.60;27.97
6204;BME280;3135;42.602;23.468;2023-03-20T14:37:01;92740.06;;;18.95;30.47
6204;BME280;3135;42.602;23.468;2023-03-20T14:47:38;92715.94;;;18.90;30.75
6204;BME280;3135;42.602;23.468;2023-03-20T14:57:52;92724.56;;;19.20;34.51
6204;BME280;3135;42.602;23.468;2023-03-20T15:00:20;92714.84;;;19.19;34.71
6204;BME280;3135;42.602;23.468;2023-03-20T15:02:50;92736.56;;;19.35;35.38
6204;BME280;3135;42.602;23.468;2023-03-20T15:05:24;92715.66;;;19.20;35.60
6204;BME280;3135;42.602;23.468;2023-03-20T15:07:51;92731.78;;;19.16;35.47
6204;BME280;3135;42.602;23.468;2023-03-20T15:10:17;92720.31;;;19.07;36.03
6204;BME280;3135;42.602;23.468;2023-03-20T15:12:43;92724.53;;;18.92;35.67
6204;BME280;3135;42.602;23.468;2023-03-20T15:15:29;92731.84;;;18.67;35.19
6204;BME280;3135;42.602;23.468;2023-03-20T15:18:09;92738.22;;;18.47;35.63
6204;BME280;3135;42.602;23.468;2023-03-20T15:20:36;92723.31;;;18.04;35.61
6204;BME280;3135;42.602;23.468;2023-03-20T15:23:01;92729.31;;;17.64;35.75
6204;BME280;3135;42.602;23.468;2023-03-20T15:25:45;92718.91;;;17.54;35.53
6204;BME280;3135;42.602;23.468;2023-03-20T15:28:13;92736.25;;;17.20;36.08
6204;BME280;3135;42.602;23.468;2023-03-20T15:30:39;92730.47;;;16.88;36.98
6204;BME280;3135;42.602;23.468;2023-03-20T15:33:09;92707.06;;;16.80;36.19
6204;BME280;3135;42.602;23.468;2023-03-20T15:35:38;92728.97;;;16.49;37.17
6204;BME280;3135;42.602;23.468;2023-03-20T15:38:05;92710.19;;;16.31;36.85